createdAt,value
2022-11-10T00:02:31.632Z,7.13
2022-11-10T00:09:38.133Z,10.85
2022-11-10T00:16:55.203Z,7.03
2022-11-10T00:23:59.725Z,10.02
2022-11-10T00:31:09.558Z,8.75
2022-11-10T00:38:13.344Z,12.60
2022-11-10T00:45:17.201Z,7.30
2022-11-10T00:52:23.707Z,9.55
2022-11-10T00:59:27.987Z,7.10
2022-11-10T01:06:32.315Z,10.40
2022-11-10T01:13:39.369Z,7.57
2022-11-10T01:27:47.089Z,9.75
2022-11-10T01:34:53.755Z,6.88
2022-11-10T01:41:57.656Z,10.18
2022-11-10T01:49:04.893Z,9.25
2022-11-10T02:10:24.765Z,7.72
2022-11-10T02:17:31.440Z,8.45
2022-11-10T02:24:37.857Z,10.23
2022-11-10T02:31:41.975Z,8.27
2022-11-10T02:38:46.055Z,6.60
2022-11-10T02:45:52.465Z,6.40
2022-11-10T02:52:56.555Z,9.20
2022-11-10T03:00:00.683Z,7.45
2022-11-10T03:07:11.969Z,13.52
2022-11-10T03:14:15.921Z,8.38
2022-11-10T03:21:20.111Z,7.47
2022-11-10T03:28:27.004Z,7.72
2022-11-10T03:35:31.108Z,9.90
2022-11-10T03:42:35.254Z,10.45
2022-11-10T04:03:30.103Z,11.43
2022-11-10T04:10:34.673Z,9.20
2022-11-10T04:17:38.884Z,12.50
2022-11-10T04:24:47.756Z,13.50
2022-11-10T04:31:51.619Z,11.23
2022-11-10T04:38:56.279Z,9.27
2022-11-10T04:46:05.016Z,13.40
2022-11-10T04:53:08.949Z,9.15
2022-11-10T05:00:15.655Z,11.02
2022-11-10T05:07:22.044Z,12.53
2022-11-10T05:14:25.953Z,9.83
2022-11-10T05:21:30.791Z,14.93
2022-11-10T05:28:38.084Z,12.07
2022-11-10T05:35:42.866Z,13.60
2022-11-10T05:42:47.668Z,11.50
2022-11-10T05:49:54.476Z,10.75
2022-11-10T05:56:58.304Z,16.23
2022-11-10T06:04:02.237Z,13.05
2022-11-10T06:11:09.476Z,12.70
2022-11-10T06:18:13.363Z,18.48
2022-11-10T06:25:17.273Z,14.57
2022-11-10T06:32:24.056Z,12.13
2022-11-10T06:39:28.034Z,14.13
2022-11-10T06:46:34.176Z,14.05
2022-11-10T06:53:44.615Z,13.75
2022-11-10T07:00:49.343Z,13.10
2022-11-10T07:07:53.330Z,14.90
2022-11-10T07:14:59.934Z,14.93
2022-11-10T07:22:09.594Z,14.20
2022-11-10T07:29:14.706Z,17.63
2022-11-10T07:36:21.590Z,18.90
2022-11-10T07:43:27.662Z,16.60
2022-11-10T07:50:32.146Z,13.95
2022-11-10T07:57:39.005Z,13.43
2022-11-10T08:04:43.091Z,15.95
2022-11-10T08:11:47.073Z,16.80
2022-11-10T08:18:53.856Z,16.15
2022-11-10T08:26:00.681Z,14.80
2022-11-10T08:33:07.664Z,11.27
2022-11-10T08:40:15.786Z,11.33
2022-11-10T08:47:19.466Z,11.90
2022-11-10T08:54:23.457Z,14.45
2022-11-10T09:01:30.160Z,15.15
2022-11-10T09:08:34.802Z,10.73
2022-11-10T09:15:39.938Z,12.00
2022-11-10T09:22:46.597Z,13.25
2022-11-10T09:29:50.753Z,11.60
2022-11-10T09:36:54.664Z,14.48
2022-11-10T09:44:08.005Z,15.43
2022-11-10T09:51:18.533Z,14.05
2022-11-10T09:58:28.436Z,15.13
2022-11-10T10:05:56.995Z,10.10
2022-11-10T10:13:21.536Z,14.02
2022-11-10T10:20:36.156Z,14.13
2022-11-10T10:27:44.426Z,13.68
2022-11-10T10:34:49.659Z,10.63
2022-11-10T10:41:53.744Z,14.32
2022-11-10T10:49:28.472Z,10.45
2022-11-10T10:56:36.259Z,7.88
2022-11-10T11:03:46.717Z,9.73
2022-11-10T11:10:53.356Z,8.45
2022-11-10T11:17:59.219Z,7.53
2022-11-10T11:25:15.356Z,7.03
2022-11-10T11:32:54.508Z,9.17
2022-11-10T11:40:15.220Z,15.07
2022-11-10T11:47:40.413Z,10.13
2022-11-10T11:55:04.426Z,11.18
2022-11-10T12:02:52.479Z,7.85
2022-11-10T12:10:13.004Z,6.97
2022-11-10T12:17:25.172Z,7.57
2022-11-10T12:24:51.446Z,9.02
2022-11-10T12:32:04.576Z,10.25
2022-11-10T12:39:19.741Z,7.80
2022-11-10T12:46:23.477Z,8.50
2022-11-10T12:53:33.661Z,8.20
2022-11-10T13:00:45.794Z,10.02
2022-11-10T13:07:53.332Z,8.48
2022-11-10T13:14:59.840Z,7.90
2022-11-10T13:22:14.631Z,9.23
2022-11-10T13:29:37.480Z,8.77
2022-11-10T13:36:46.162Z,11.07
2022-11-10T13:43:56.109Z,5.45
2022-11-10T13:51:13.573Z,8.80
2022-11-10T13:58:29.808Z,6.38
2022-11-10T14:06:07.801Z,7.00
2022-11-10T14:13:19.898Z,6.72
2022-11-10T14:20:33.004Z,9.93
2022-11-10T14:27:39.198Z,11.82
2022-11-10T14:34:50.189Z,12.43
2022-11-10T14:41:57.333Z,9.50
2022-11-10T14:49:02.574Z,6.47
2022-11-10T14:56:16.438Z,5.72
2022-11-10T15:03:31.351Z,6.22
2022-11-10T15:10:50.643Z,4.93
2022-11-10T15:17:55.679Z,4.75
2022-11-10T15:25:04.236Z,7.80
2022-11-10T15:32:20.339Z,7.53
2022-11-10T15:39:28.760Z,11.45
2022-11-10T15:46:35.500Z,9.40
2022-11-10T16:00:46.199Z,5.25
2022-11-10T16:07:52.708Z,7.10
2022-11-10T16:14:56.958Z,7.03
2022-11-10T16:22:00.622Z,7.13
2022-11-10T16:29:13.800Z,5.85
2022-11-10T16:36:26.812Z,5.88
2022-11-10T16:43:32.794Z,5.20
2022-11-10T16:50:40.501Z,6.47
2022-11-10T16:57:44.637Z,8.55
2022-11-10T17:04:48.993Z,11.27
2022-11-10T17:11:55.475Z,8.13
2022-11-10T17:19:02.180Z,8.18
2022-11-10T17:33:13.863Z,9.43
2022-11-10T17:40:23.151Z,9.90
2022-11-10T17:47:27.229Z,9.43
2022-11-10T17:54:34.121Z,7.57
2022-11-10T18:01:38.345Z,11.10
2022-11-10T18:08:42.187Z,11.85
2022-11-10T18:15:54.265Z,11.45
2022-11-10T18:22:58.080Z,12.07
2022-11-10T18:30:02.547Z,9.43
2022-11-10T18:37:09.219Z,9.98
2022-11-10T18:44:13.723Z,8.90
2022-11-10T18:51:18.960Z,9.23
2022-11-10T18:58:26.054Z,12.35
2022-11-10T19:12:35.214Z,8.85
2022-11-10T19:19:41.731Z,9.25
2022-11-10T19:26:45.876Z,11.85
2022-11-10T19:33:50.556Z,13.77
2022-11-10T19:40:57.167Z,8.65
2022-11-10T19:48:01.099Z,20.33
2022-11-10T19:55:05.063Z,18.23
2022-11-10T20:02:13.819Z,17.42
2022-11-10T20:09:17.987Z,13.05
2022-11-10T20:16:21.780Z,15.77
2022-11-10T20:23:28.607Z,17.27
2022-11-10T20:30:33.476Z,11.70
2022-11-10T20:37:37.870Z,12.32
2022-11-10T20:44:44.749Z,14.20
2022-11-10T20:51:48.920Z,10.43
2022-11-10T20:58:53.612Z,10.05
2022-11-10T21:06:01.956Z,12.27
2022-11-10T21:13:05.941Z,11.63
2022-11-10T21:20:11.805Z,10.43
2022-11-10T21:27:18.283Z,12.38
2022-11-10T21:34:22.697Z,11.00
2022-11-10T21:41:26.630Z,11.15
2022-11-10T21:48:33.641Z,10.45
2022-11-10T21:55:37.689Z,13.48
2022-11-10T22:02:41.501Z,11.35
2022-11-10T22:10:00.831Z,16.55
2022-11-10T22:17:17.525Z,12.43
2022-11-10T22:24:27.275Z,11.38
2022-11-10T22:31:36.657Z,12.63
2022-11-10T22:38:43.320Z,11.77
2022-11-10T22:45:48.547Z,13.93
2022-11-10T22:52:55.726Z,13.85
2022-11-10T22:59:59.945Z,14.55
2022-11-10T23:07:05.238Z,12.38
2022-11-10T23:14:13.520Z,13.65
2022-11-10T23:21:20.183Z,10.80
2022-11-10T23:28:24.082Z,9.93
2022-11-10T23:35:30.897Z,10.90
2022-11-10T23:42:34.857Z,9.63
2022-11-10T23:49:38.688Z,11.77
2022-11-10T23:56:45.350Z,10.30
